Aérodrome :
LOGIN :

S'inscrire | Disclaimer

   EN    FR    IT 

 










Légende :    VFR   VFR Marginal   IFR   IFR Intensif   IFR Très Intensif
Visi : 
Plafond : 
>= 8 km
>= 3000ft
5 à 8 km
1000 à 3000 ft
1500m à 5 km
500 à 1000 ft
800 à 1500m
200 à 500 ft
< 800m
< 200 ft
Symboles :   Orages  Brouillard  Fortes neiges  Fortes précipitations  Vent > 20 kt
SIGMETs :   Divers  Orages  Givrage  Turbulence  Onde Orograph.  Cendres Volcan.







- Altitude de l'aérodrome : 36 ft
- Code IATA : LTQ
- Voir les cartes d'approche


LFAT - Le Touquet

DERNIER METAR :
  • 181030Z AUTO 12005KT 5000 BR BKN003 BKN066 BKN080 14/14 Q1012 BECMG NSC

METARs EXPIRÉS :
  • 181000Z AUTO 12007KT 3500 BR OVC002 13/13 Q1012 NOSIG
  • 180930Z AUTO 12009KT 3500 BR OVC002 13/13 Q1012 BECMG 8000 NSW NSC
  • 180900Z AUTO 12008KT 2700 BR OVC002 13/12 Q1012 BECMG 8000 NSW NSC
  • 180830Z AUTO 13008KT 1900 BR OVC001 13/12 Q1012 BECMG 8000 NSW NSC

TAF TAF LFAT
Valide du 18 à 09h jusqu'au 18 à 18h UTC


180800Z 1809/1818 14008KT 8000 NSC
TEMPO 1809/1812 4000 BR OVC002
ATIS : +33 3 21 06 62 84
Pas de NOTAMs connus pour ce terrain.



MET'MAP, la Météo Aéronautique d'un coup d'oeil ! - Copyright ORBIFLY Décembre 2007 - Disclaimer

ORBIFLY MET'MAP TEAM :

Programmation & Développement : Alexandra Zaïnal
Conception & Développement : Baudouin d'Aumeries
Co-Programmation & Développement : Marc-Olivier Méhu
Soutien technique & logistique : Manuel Goepfert

Contact : metmap@orbifly.com




SOURCES & CREDITS :

   NOAA